Holden, Canada
Current Conditions -  °F | °C
As of 2:00 AM on Friday 31 Oct 2014 (Local Time) from CYEG Reporting Station
Broken Clouds Broken Clouds  
Wind Chill: 26°   Ceiling: 23000
Heat Index: 36°   Visibility: 15mi
Dew Point: 32°   Wind: 15mph
Humidity: 87%   Direction: 140°SE
Pressure: 29.73"   Gusts: 22mph
Location:  53.23°N, 112.23°W
Report Text: CYEG 310800Z 14013G19KT 15SM FEW011 BKN230 02/00 A2973 RMK SF1CI7 SF TR SLP097
Loading
Personal Weather Stations






























Interactive Weather Map
Tropical Storm Tracking
New forecast layout! Learn more

10-Day Weather Forecast

Advertisements
Track Severe Weather on mobile